Terminal Aerodrome Forecast
Issued by NWS

Current Version | Previous Version | Graphics & Text | Print | Product List | Glossary On
Versions: 1 2 3 4 5 6 7 8 9 10 11 12 13 14 15
000
FTUS41 KILN 250200 AAA
TAFLUK
TAF AMD
KLUK 250251Z 2503/2524 16008KT P6SM SCT100 BKN200
     FM250900 18010KT P6SM VCSH BKN080
     FM251300 22013G22KT P6SM SCT050 BKN080
     FM251800 22015G24KT P6SM VCSH BKN050=

USA.gov is the U.S. government's official web portal to all federal, state and local government web resources and services.